sensor_id;sensor_type;location;lat;lon;timestamp;P1;durP1;ratioP1;P2;durP2;ratioP2
33690;SDS011;20026;50.058;18.428;2023-02-14T00:02:05;53.45;;;27.08;;
33690;SDS011;20026;50.058;18.428;2023-02-14T00:04:31;52.63;;;27.77;;
33690;SDS011;20026;50.058;18.428;2023-02-14T00:06:57;44.45;;;23.38;;
33690;SDS011;20026;50.058;18.428;2023-02-14T00:09:25;44.30;;;23.83;;
33690;SDS011;20026;50.058;18.428;2023-02-14T00:11:51;40.53;;;23.75;;
33690;SDS011;20026;50.058;18.428;2023-02-14T00:14:17;42.45;;;25.05;;
33690;SDS011;20026;50.058;18.428;2023-02-14T00:17:01;45.72;;;27.08;;
33690;SDS011;20026;50.058;18.428;2023-02-14T00:19:28;48.72;;;24.90;;
33690;SDS011;20026;50.058;18.428;2023-02-14T00:21:55;45.35;;;24.58;;
33690;SDS011;20026;50.058;18.428;2023-02-14T00:24:22;37.90;;;22.75;;
33690;SDS011;20026;50.058;18.428;2023-02-14T00:26:49;45.50;;;23.55;;
33690;SDS011;20026;50.058;18.428;2023-02-14T00:29:17;42.70;;;23.35;;
33690;SDS011;20026;50.058;18.428;2023-02-14T00:31:43;37.88;;;22.70;;
33690;SDS011;20026;50.058;18.428;2023-02-14T00:34:09;39.42;;;22.52;;
33690;SDS011;20026;50.058;18.428;2023-02-14T00:36:35;41.22;;;23.63;;
33690;SDS011;20026;50.058;18.428;2023-02-14T00:39:02;40.53;;;22.38;;
33690;SDS011;20026;50.058;18.428;2023-02-14T00:41:28;43.70;;;25.23;;
33690;SDS011;20026;50.058;18.428;2023-02-14T00:43:54;39.92;;;22.40;;
33690;SDS011;20026;50.058;18.428;2023-02-14T00:46:21;44.25;;;24.00;;
33690;SDS011;20026;50.058;18.428;2023-02-14T00:48:48;40.33;;;23.48;;
33690;SDS011;20026;50.058;18.428;2023-02-14T00:51:15;42.38;;;24.48;;
33690;SDS011;20026;50.058;18.428;2023-02-14T00:53:42;44.97;;;25.88;;
33690;SDS011;20026;50.058;18.428;2023-02-14T00:56:09;45.00;;;25.83;;
33690;SDS011;20026;50.058;18.428;2023-02-14T00:58:35;46.92;;;26.38;;
33690;SDS011;20026;50.058;18.428;2023-02-14T01:01:02;43.53;;;25.05;;
33690;SDS011;20026;50.058;18.428;2023-02-14T01:03:28;49.30;;;27.50;;
33690;SDS011;20026;50.058;18.428;2023-02-14T01:05:54;52.13;;;27.88;;
33690;SDS011;20026;50.058;18.428;2023-02-14T01:08:20;56.42;;;29.80;;
33690;SDS011;20026;50.058;18.428;2023-02-14T01:10:46;54.03;;;31.10;;
33690;SDS011;20026;50.058;18.428;2023-02-14T01:13:12;53.25;;;30.08;;
33690;SDS011;20026;50.058;18.428;2023-02-14T01:15:39;59.00;;;31.15;;
33690;SDS011;20026;50.058;18.428;2023-02-14T01:18:06;57.45;;;31.15;;
33690;SDS011;20026;50.058;18.428;2023-02-14T01:20:32;61.53;;;31.95;;
33690;SDS011;20026;50.058;18.428;2023-02-14T01:22:58;65.35;;;32.78;;
33690;SDS011;20026;50.058;18.428;2023-02-14T01:25:24;72.55;;;34.50;;
33690;SDS011;20026;50.058;18.428;2023-02-14T01:27:50;77.75;;;34.53;;
33690;SDS011;20026;50.058;18.428;2023-02-14T01:30:17;66.53;;;34.97;;
33690;SDS011;20026;50.058;18.428;2023-02-14T01:32:43;75.70;;;35.20;;
33690;SDS011;20026;50.058;18.428;2023-02-14T01:35:09;78.65;;;37.72;;
33690;SDS011;20026;50.058;18.428;2023-02-14T01:37:35;73.70;;;37.10;;
33690;SDS011;20026;50.058;18.428;2023-02-14T01:40:01;65.00;;;35.55;;
33690;SDS011;20026;50.058;18.428;2023-02-14T01:42:28;71.80;;;36.05;;
33690;SDS011;20026;50.058;18.428;2023-02-14T01:44:55;72.53;;;36.90;;
33690;SDS011;20026;50.058;18.428;2023-02-14T01:47:21;71.65;;;36.35;;
33690;SDS011;20026;50.058;18.428;2023-02-14T01:49:49;64.75;;;35.15;;
33690;SDS011;20026;50.058;18.428;2023-02-14T01:52:18;67.18;;;34.47;;
33690;SDS011;20026;50.058;18.428;2023-02-14T01:54:48;114.10;;;58.55;;
33690;SDS011;20026;50.058;18.428;2023-02-14T01:57:17;80.63;;;42.97;;
33690;SDS011;20026;50.058;18.428;2023-02-14T01:59:46;66.57;;;35.88;;
33690;SDS011;20026;50.058;18.428;2023-02-14T02:02:13;61.33;;;34.00;;
33690;SDS011;20026;50.058;18.428;2023-02-14T02:04:43;61.13;;;31.33;;
33690;SDS011;20026;50.058;18.428;2023-02-14T02:07:11;52.50;;;29.05;;
33690;SDS011;20026;50.058;18.428;2023-02-14T02:09:49;60.85;;;30.58;;
33690;SDS011;20026;50.058;18.428;2023-02-14T02:12:16;57.72;;;30.63;;
33690;SDS011;20026;50.058;18.428;2023-02-14T02:14:42;60.20;;;32.70;;
33690;SDS011;20026;50.058;18.428;2023-02-14T02:27:33;61.70;;;35.13;;
33690;SDS011;20026;50.058;18.428;2023-02-14T02:40:09;65.28;;;36.20;;
33690;SDS011;20026;50.058;18.428;2023-02-14T02:42:53;69.63;;;37.28;;
33690;SDS011;20026;50.058;18.428;2023-02-14T02:48:00;64.82;;;37.10;;
33690;SDS011;20026;50.058;18.428;2023-02-14T02:53:22;70.85;;;37.88;;
33690;SDS011;20026;50.058;18.428;2023-02-14T02:56:00;68.95;;;38.40;;
33690;SDS011;20026;50.058;18.428;2023-02-14T02:58:57;77.63;;;38.30;;
33690;SDS011;20026;50.058;18.428;2023-02-14T03:01:27;66.88;;;35.53;;
33690;SDS011;20026;50.058;18.428;2023-02-14T03:04:01;65.60;;;34.47;;
33690;SDS011;20026;50.058;18.428;2023-02-14T03:06:47;74.53;;;40.00;;
33690;SDS011;20026;50.058;18.428;2023-02-14T03:11:48;70.90;;;37.75;;
33690;SDS011;20026;50.058;18.428;2023-02-14T03:14:18;65.30;;;34.45;;
33690;SDS011;20026;50.058;18.428;2023-02-14T03:16:50;66.28;;;34.47;;
33690;SDS011;20026;50.058;18.428;2023-02-14T03:22:34;67.68;;;35.15;;
33690;SDS011;20026;50.058;18.428;2023-02-14T03:27:54;61.63;;;33.30;;
33690;SDS011;20026;50.058;18.428;2023-02-14T03:30:24;58.45;;;28.95;;
33690;SDS011;20026;50.058;18.428;2023-02-14T03:33:15;63.28;;;33.88;;
33690;SDS011;20026;50.058;18.428;2023-02-14T03:35:45;60.70;;;30.83;;
33690;SDS011;20026;50.058;18.428;2023-02-14T03:38:13;60.55;;;32.25;;
33690;SDS011;20026;50.058;18.428;2023-02-14T03:40:46;61.65;;;31.70;;
33690;SDS011;20026;50.058;18.428;2023-02-14T03:43:35;75.13;;;34.92;;
33690;SDS011;20026;50.058;18.428;2023-02-14T03:48:32;63.00;;;32.30;;
33690;SDS011;20026;50.058;18.428;2023-02-14T03:50:59;58.28;;;30.63;;
33690;SDS011;20026;50.058;18.428;2023-02-14T03:53:27;61.55;;;32.50;;
33690;SDS011;20026;50.058;18.428;2023-02-14T03:58:25;56.10;;;28.88;;
33690;SDS011;20026;50.058;18.428;2023-02-14T04:00:55;52.85;;;29.45;;
33690;SDS011;20026;50.058;18.428;2023-02-14T04:03:22;62.42;;;31.83;;
33690;SDS011;20026;50.058;18.428;2023-02-14T04:05:49;61.72;;;31.60;;
33690;SDS011;20026;50.058;18.428;2023-02-14T04:08:20;55.72;;;31.70;;
33690;SDS011;20026;50.058;18.428;2023-02-14T04:10:46;53.35;;;27.98;;
33690;SDS011;20026;50.058;18.428;2023-02-14T04:13:12;48.00;;;26.45;;
33690;SDS011;20026;50.058;18.428;2023-02-14T04:15:38;40.90;;;24.10;;
33690;SDS011;20026;50.058;18.428;2023-02-14T04:18:04;41.92;;;24.23;;
33690;SDS011;20026;50.058;18.428;2023-02-14T04:20:49;125.95;;;64.20;;
33690;SDS011;20026;50.058;18.428;2023-02-14T04:23:15;66.25;;;35.25;;
33690;SDS011;20026;50.058;18.428;2023-02-14T04:25:41;50.67;;;28.50;;
33690;SDS011;20026;50.058;18.428;2023-02-14T04:28:07;49.55;;;27.02;;
33690;SDS011;20026;50.058;18.428;2023-02-14T04:30:33;46.60;;;27.38;;
33690;SDS011;20026;50.058;18.428;2023-02-14T04:32:59;54.80;;;29.88;;
33690;SDS011;20026;50.058;18.428;2023-02-14T04:35:25;47.42;;;27.80;;
33690;SDS011;20026;50.058;18.428;2023-02-14T04:37:51;55.80;;;31.20;;
33690;SDS011;20026;50.058;18.428;2023-02-14T04:40:17;62.25;;;35.38;;
33690;SDS011;20026;50.058;18.428;2023-02-14T04:42:43;117.93;;;61.83;;
33690;SDS011;20026;50.058;18.428;2023-02-14T04:45:10;132.45;;;68.15;;
33690;SDS011;20026;50.058;18.428;2023-02-14T04:47:36;178.63;;;92.30;;
33690;SDS011;20026;50.058;18.428;2023-02-14T04:50:02;153.45;;;82.60;;
33690;SDS011;20026;50.058;18.428;2023-02-14T04:52:29;83.03;;;48.03;;
33690;SDS011;20026;50.058;18.428;2023-02-14T04:54:55;60.55;;;34.35;;
33690;SDS011;20026;50.058;18.428;2023-02-14T04:57:21;60.90;;;33.13;;
33690;SDS011;20026;50.058;18.428;2023-02-14T04:59:47;55.45;;;30.48;;
33690;SDS011;20026;50.058;18.428;2023-02-14T05:02:13;51.42;;;28.45;;
33690;SDS011;20026;50.058;18.428;2023-02-14T05:04:39;51.72;;;28.67;;
33690;SDS011;20026;50.058;18.428;2023-02-14T05:07:05;57.60;;;31.25;;
33690;SDS011;20026;50.058;18.428;2023-02-14T05:09:31;56.05;;;33.53;;
33690;SDS011;20026;50.058;18.428;2023-02-14T05:11:57;62.83;;;33.00;;
33690;SDS011;20026;50.058;18.428;2023-02-14T05:14:23;73.28;;;40.38;;
33690;SDS011;20026;50.058;18.428;2023-02-14T05:16:49;78.15;;;42.80;;
33690;SDS011;20026;50.058;18.428;2023-02-14T05:19:15;79.63;;;41.30;;
33690;SDS011;20026;50.058;18.428;2023-02-14T05:21:41;78.32;;;43.08;;
33690;SDS011;20026;50.058;18.428;2023-02-14T05:24:07;65.43;;;37.47;;
33690;SDS011;20026;50.058;18.428;2023-02-14T05:26:33;57.28;;;32.28;;
33690;SDS011;20026;50.058;18.428;2023-02-14T05:28:59;54.72;;;30.50;;
33690;SDS011;20026;50.058;18.428;2023-02-14T05:31:25;60.00;;;32.15;;
33690;SDS011;20026;50.058;18.428;2023-02-14T05:33:51;60.53;;;32.30;;
33690;SDS011;20026;50.058;18.428;2023-02-14T05:36:17;56.50;;;32.63;;
33690;SDS011;20026;50.058;18.428;2023-02-14T05:38:43;61.17;;;31.58;;
33690;SDS011;20026;50.058;18.428;2023-02-14T05:41:09;63.35;;;34.05;;
33690;SDS011;20026;50.058;18.428;2023-02-14T05:43:35;59.85;;;33.67;;
33690;SDS011;20026;50.058;18.428;2023-02-14T05:46:01;59.78;;;33.28;;
33690;SDS011;20026;50.058;18.428;2023-02-14T05:48:27;58.78;;;32.53;;
33690;SDS011;20026;50.058;18.428;2023-02-14T05:50:53;54.80;;;31.60;;
33690;SDS011;20026;50.058;18.428;2023-02-14T05:53:19;54.03;;;30.98;;
33690;SDS011;20026;50.058;18.428;2023-02-14T05:55:45;51.85;;;31.10;;
33690;SDS011;20026;50.058;18.428;2023-02-14T05:58:12;60.40;;;32.55;;
33690;SDS011;20026;50.058;18.428;2023-02-14T06:00:38;56.15;;;32.40;;
33690;SDS011;20026;50.058;18.428;2023-02-14T06:03:04;56.83;;;33.92;;
33690;SDS011;20026;50.058;18.428;2023-02-14T06:05:30;88.45;;;41.92;;
33690;SDS011;20026;50.058;18.428;2023-02-14T06:07:56;142.60;;;56.65;;
33690;SDS011;20026;50.058;18.428;2023-02-14T06:10:22;218.40;;;79.95;;
33690;SDS011;20026;50.058;18.428;2023-02-14T06:12:49;193.05;;;77.95;;
33690;SDS011;20026;50.058;18.428;2023-02-14T06:15:15;133.20;;;59.92;;
33690;SDS011;20026;50.058;18.428;2023-02-14T06:17:41;134.70;;;59.13;;
33690;SDS011;20026;50.058;18.428;2023-02-14T06:20:08;117.63;;;54.13;;
33690;SDS011;20026;50.058;18.428;2023-02-14T06:22:35;119.70;;;54.65;;
33690;SDS011;20026;50.058;18.428;2023-02-14T06:25:01;132.80;;;57.47;;
33690;SDS011;20026;50.058;18.428;2023-02-14T06:27:28;154.27;;;67.30;;
33690;SDS011;20026;50.058;18.428;2023-02-14T06:29:54;124.07;;;54.47;;
33690;SDS011;20026;50.058;18.428;2023-02-14T06:32:20;107.40;;;48.92;;
33690;SDS011;20026;50.058;18.428;2023-02-14T06:34:46;123.15;;;55.63;;
33690;SDS011;20026;50.058;18.428;2023-02-14T06:37:12;88.85;;;43.47;;
33690;SDS011;20026;50.058;18.428;2023-02-14T06:39:38;75.65;;;38.92;;
33690;SDS011;20026;50.058;18.428;2023-02-14T06:42:04;71.95;;;38.00;;
33690;SDS011;20026;50.058;18.428;2023-02-14T06:44:30;62.00;;;35.33;;
33690;SDS011;20026;50.058;18.428;2023-02-14T06:46:56;56.13;;;32.78;;
33690;SDS011;20026;50.058;18.428;2023-02-14T06:49:22;50.55;;;30.05;;
33690;SDS011;20026;50.058;18.428;2023-02-14T06:51:49;50.20;;;30.42;;
33690;SDS011;20026;50.058;18.428;2023-02-14T06:54:15;46.95;;;27.77;;
33690;SDS011;20026;50.058;18.428;2023-02-14T06:56:41;43.05;;;26.60;;
33690;SDS011;20026;50.058;18.428;2023-02-14T06:59:07;33.88;;;21.65;;
33690;SDS011;20026;50.058;18.428;2023-02-14T07:01:33;36.72;;;25.52;;
33690;SDS011;20026;50.058;18.428;2023-02-14T07:03:59;38.13;;;25.05;;
33690;SDS011;20026;50.058;18.428;2023-02-14T07:06:25;35.50;;;22.25;;
33690;SDS011;20026;50.058;18.428;2023-02-14T07:08:51;37.70;;;24.83;;
33690;SDS011;20026;50.058;18.428;2023-02-14T07:11:17;45.22;;;26.45;;
33690;SDS011;20026;50.058;18.428;2023-02-14T07:13:43;47.85;;;27.33;;
33690;SDS011;20026;50.058;18.428;2023-02-14T07:16:09;49.08;;;29.40;;
33690;SDS011;20026;50.058;18.428;2023-02-14T07:18:35;47.85;;;28.48;;
33690;SDS011;20026;50.058;18.428;2023-02-14T07:21:01;39.08;;;24.70;;
33690;SDS011;20026;50.058;18.428;2023-02-14T07:23:27;49.50;;;30.25;;
33690;SDS011;20026;50.058;18.428;2023-02-14T07:25:54;49.88;;;30.45;;
33690;SDS011;20026;50.058;18.428;2023-02-14T07:28:20;53.88;;;28.67;;
33690;SDS011;20026;50.058;18.428;2023-02-14T07:30:46;55.17;;;31.88;;
33690;SDS011;20026;50.058;18.428;2023-02-14T07:33:12;56.40;;;31.60;;
33690;SDS011;20026;50.058;18.428;2023-02-14T07:35:38;54.55;;;29.38;;
33690;SDS011;20026;50.058;18.428;2023-02-14T07:38:04;54.30;;;29.20;;
33690;SDS011;20026;50.058;18.428;2023-02-14T07:40:30;60.70;;;34.80;;
33690;SDS011;20026;50.058;18.428;2023-02-14T07:42:56;48.35;;;27.73;;
33690;SDS011;20026;50.058;18.428;2023-02-14T07:45:23;52.33;;;29.90;;
33690;SDS011;20026;50.058;18.428;2023-02-14T07:47:50;47.72;;;28.25;;
33690;SDS011;20026;50.058;18.428;2023-02-14T07:50:16;44.45;;;27.70;;
33690;SDS011;20026;50.058;18.428;2023-02-14T07:52:43;42.15;;;25.88;;
33690;SDS011;20026;50.058;18.428;2023-02-14T07:55:09;41.30;;;24.05;;
33690;SDS011;20026;50.058;18.428;2023-02-14T07:57:35;40.40;;;24.33;;
33690;SDS011;20026;50.058;18.428;2023-02-14T08:00:03;51.83;;;26.77;;
33690;SDS011;20026;50.058;18.428;2023-02-14T08:02:29;51.80;;;28.40;;
33690;SDS011;20026;50.058;18.428;2023-02-14T08:04:55;42.47;;;25.45;;
33690;SDS011;20026;50.058;18.428;2023-02-14T08:07:21;42.97;;;25.52;;
33690;SDS011;20026;50.058;18.428;2023-02-14T08:09:47;42.65;;;27.48;;
33690;SDS011;20026;50.058;18.428;2023-02-14T08:12:14;42.85;;;27.08;;
33690;SDS011;20026;50.058;18.428;2023-02-14T08:14:58;76.95;;;42.75;;
33690;SDS011;20026;50.058;18.428;2023-02-14T08:17:44;60.33;;;35.75;;
33690;SDS011;20026;50.058;18.428;2023-02-14T08:20:10;51.92;;;31.40;;
33690;SDS011;20026;50.058;18.428;2023-02-14T08:22:36;49.83;;;29.15;;
33690;SDS011;20026;50.058;18.428;2023-02-14T08:25:03;48.10;;;30.73;;
33690;SDS011;20026;50.058;18.428;2023-02-14T08:27:29;42.63;;;25.90;;
33690;SDS011;20026;50.058;18.428;2023-02-14T08:29:55;47.10;;;26.50;;
33690;SDS011;20026;50.058;18.428;2023-02-14T08:32:20;49.17;;;28.50;;
33690;SDS011;20026;50.058;18.428;2023-02-14T08:34:46;48.13;;;26.65;;
33690;SDS011;20026;50.058;18.428;2023-02-14T08:37:12;41.17;;;24.73;;
33690;SDS011;20026;50.058;18.428;2023-02-14T08:39:38;42.30;;;25.38;;
33690;SDS011;20026;50.058;18.428;2023-02-14T08:42:04;48.85;;;27.70;;
33690;SDS011;20026;50.058;18.428;2023-02-14T08:44:30;45.80;;;27.15;;
33690;SDS011;20026;50.058;18.428;2023-02-14T08:46:56;40.28;;;22.92;;
33690;SDS011;20026;50.058;18.428;2023-02-14T08:49:22;40.78;;;24.92;;
33690;SDS011;20026;50.058;18.428;2023-02-14T08:51:48;43.65;;;24.75;;
33690;SDS011;20026;50.058;18.428;2023-02-14T08:54:15;43.95;;;26.23;;
33690;SDS011;20026;50.058;18.428;2023-02-14T08:56:40;37.55;;;23.20;;
33690;SDS011;20026;50.058;18.428;2023-02-14T08:59:06;43.10;;;24.90;;
33690;SDS011;20026;50.058;18.428;2023-02-14T09:01:32;50.55;;;27.20;;
33690;SDS011;20026;50.058;18.428;2023-02-14T09:04:00;45.55;;;26.33;;
33690;SDS011;20026;50.058;18.428;2023-02-14T09:06:27;48.55;;;25.45;;
33690;SDS011;20026;50.058;18.428;2023-02-14T09:08:54;41.00;;;22.50;;
33690;SDS011;20026;50.058;18.428;2023-02-14T09:11:21;39.15;;;22.15;;
33690;SDS011;20026;50.058;18.428;2023-02-14T09:13:48;41.25;;;23.35;;
33690;SDS011;20026;50.058;18.428;2023-02-14T09:16:15;41.03;;;23.33;;
33690;SDS011;20026;50.058;18.428;2023-02-14T09:18:41;50.10;;;26.83;;
33690;SDS011;20026;50.058;18.428;2023-02-14T09:21:08;54.60;;;27.63;;
33690;SDS011;20026;50.058;18.428;2023-02-14T09:23:35;53.90;;;27.90;;
33690;SDS011;20026;50.058;18.428;2023-02-14T09:26:02;51.35;;;27.80;;
33690;SDS011;20026;50.058;18.428;2023-02-14T09:28:28;46.42;;;26.65;;
33690;SDS011;20026;50.058;18.428;2023-02-14T09:30:54;45.15;;;24.58;;
33690;SDS011;20026;50.058;18.428;2023-02-14T09:33:20;39.80;;;24.63;;
33690;SDS011;20026;50.058;18.428;2023-02-14T09:35:46;41.30;;;24.38;;
33690;SDS011;20026;50.058;18.428;2023-02-14T09:38:12;55.15;;;28.42;;
33690;SDS011;20026;50.058;18.428;2023-02-14T09:40:45;43.88;;;26.52;;
33690;SDS011;20026;50.058;18.428;2023-02-14T09:43:22;39.58;;;22.73;;
33690;SDS011;20026;50.058;18.428;2023-02-14T09:45:54;39.15;;;23.48;;
33690;SDS011;20026;50.058;18.428;2023-02-14T09:48:31;45.13;;;24.98;;
33690;SDS011;20026;50.058;18.428;2023-02-14T09:50:59;40.70;;;24.38;;
33690;SDS011;20026;50.058;18.428;2023-02-14T09:53:39;35.00;;;22.02;;
33690;SDS011;20026;50.058;18.428;2023-02-14T09:59:20;28.35;;;18.27;;
33690;SDS011;20026;50.058;18.428;2023-02-14T10:01:50;31.55;;;18.42;;
33690;SDS011;20026;50.058;18.428;2023-02-14T10:07:05;34.97;;;19.85;;
33690;SDS011;20026;50.058;18.428;2023-02-14T10:09:55;33.42;;;20.95;;
33690;SDS011;20026;50.058;18.428;2023-02-14T10:12:26;38.25;;;21.45;;
33690;SDS011;20026;50.058;18.428;2023-02-14T10:14:54;35.72;;;19.83;;
33690;SDS011;20026;50.058;18.428;2023-02-14T10:17:30;47.60;;;25.98;;
33690;SDS011;20026;50.058;18.428;2023-02-14T10:20:01;39.90;;;23.23;;
33690;SDS011;20026;50.058;18.428;2023-02-14T10:22:36;45.58;;;24.45;;
33690;SDS011;20026;50.058;18.428;2023-02-14T10:25:12;51.80;;;28.30;;
33690;SDS011;20026;50.058;18.428;2023-02-14T10:27:39;43.20;;;22.98;;
33690;SDS011;20026;50.058;18.428;2023-02-14T10:30:18;32.63;;;20.00;;
33690;SDS011;20026;50.058;18.428;2023-02-14T10:32:46;39.17;;;22.88;;
33690;SDS011;20026;50.058;18.428;2023-02-14T10:40:31;34.70;;;20.27;;
33690;SDS011;20026;50.058;18.428;2023-02-14T10:50:51;37.78;;;20.65;;
33690;SDS011;20026;50.058;18.428;2023-02-14T10:56:02;52.58;;;22.70;;
33690;SDS011;20026;50.058;18.428;2023-02-14T10:58:31;25.48;;;15.73;;
33690;SDS011;20026;50.058;18.428;2023-02-14T11:03:34;34.53;;;17.30;;
33690;SDS011;20026;50.058;18.428;2023-02-14T11:06:01;25.38;;;15.60;;
33690;SDS011;20026;50.058;18.428;2023-02-14T11:08:30;23.92;;;14.65;;
33690;SDS011;20026;50.058;18.428;2023-02-14T11:13:46;35.75;;;20.23;;
33690;SDS011;20026;50.058;18.428;2023-02-14T11:16:28;34.10;;;18.77;;
33690;SDS011;20026;50.058;18.428;2023-02-14T11:21:39;30.02;;;18.33;;
33690;SDS011;20026;50.058;18.428;2023-02-14T11:29:41;32.80;;;18.10;;
33690;SDS011;20026;50.058;18.428;2023-02-14T11:32:09;29.52;;;17.48;;
33690;SDS011;20026;50.058;18.428;2023-02-14T11:34:38;26.77;;;16.30;;
33690;SDS011;20026;50.058;18.428;2023-02-14T11:37:15;29.30;;;17.88;;
33690;SDS011;20026;50.058;18.428;2023-02-14T11:39:41;27.40;;;17.88;;
33690;SDS011;20026;50.058;18.428;2023-02-14T11:42:08;32.75;;;19.25;;
33690;SDS011;20026;50.058;18.428;2023-02-14T11:44:36;27.33;;;17.95;;
33690;SDS011;20026;50.058;18.428;2023-02-14T11:47:18;30.08;;;18.05;;
33690;SDS011;20026;50.058;18.428;2023-02-14T11:49:56;30.38;;;18.17;;
33690;SDS011;20026;50.058;18.428;2023-02-14T11:52:22;37.63;;;18.88;;
33690;SDS011;20026;50.058;18.428;2023-02-14T11:54:51;29.10;;;16.50;;
33690;SDS011;20026;50.058;18.428;2023-02-14T11:59:44;30.95;;;16.70;;
33690;SDS011;20026;50.058;18.428;2023-02-14T12:04:38;26.38;;;16.27;;
33690;SDS011;20026;50.058;18.428;2023-02-14T12:07:13;26.30;;;16.65;;
33690;SDS011;20026;50.058;18.428;2023-02-14T12:09:40;30.73;;;18.05;;
33690;SDS011;20026;50.058;18.428;2023-02-14T12:12:20;29.33;;;17.67;;
33690;SDS011;20026;50.058;18.428;2023-02-14T12:14:47;30.00;;;18.40;;
33690;SDS011;20026;50.058;18.428;2023-02-14T12:22:25;30.48;;;17.67;;
33690;SDS011;20026;50.058;18.428;2023-02-14T12:27:29;34.50;;;16.75;;
33690;SDS011;20026;50.058;18.428;2023-02-14T12:30:16;26.40;;;14.18;;
33690;SDS011;20026;50.058;18.428;2023-02-14T12:32:47;27.55;;;15.55;;
33690;SDS011;20026;50.058;18.428;2023-02-14T12:50:58;25.58;;;13.82;;
33690;SDS011;20026;50.058;18.428;2023-02-14T13:01:38;92.90;;;18.95;;
33690;SDS011;20026;50.058;18.428;2023-02-14T13:04:21;71.72;;;18.80;;
33690;SDS011;20026;50.058;18.428;2023-02-14T13:06:55;54.42;;;17.20;;
33690;SDS011;20026;50.058;18.428;2023-02-14T13:09:43;35.15;;;15.15;;
33690;SDS011;20026;50.058;18.428;2023-02-14T13:12:28;61.35;;;18.73;;
33690;SDS011;20026;50.058;18.428;2023-02-14T13:22:38;42.83;;;19.25;;
33690;SDS011;20026;50.058;18.428;2023-02-14T13:25:08;39.35;;;21.10;;
33690;SDS011;20026;50.058;18.428;2023-02-14T13:27:38;46.00;;;20.55;;
33690;SDS011;20026;50.058;18.428;2023-02-14T13:30:12;43.97;;;23.02;;
33690;SDS011;20026;50.058;18.428;2023-02-14T13:32:39;35.45;;;20.50;;
33690;SDS011;20026;50.058;18.428;2023-02-14T13:35:06;38.03;;;19.50;;
33690;SDS011;20026;50.058;18.428;2023-02-14T13:37:32;48.20;;;25.05;;
33690;SDS011;20026;50.058;18.428;2023-02-14T13:40:00;44.20;;;22.48;;
33690;SDS011;20026;50.058;18.428;2023-02-14T13:48:03;38.70;;;20.75;;
33690;SDS011;20026;50.058;18.428;2023-02-14T13:50:31;52.47;;;24.92;;
33690;SDS011;20026;50.058;18.428;2023-02-14T13:52:58;49.92;;;25.52;;
33690;SDS011;20026;50.058;18.428;2023-02-14T13:55:25;38.03;;;20.40;;
33690;SDS011;20026;50.058;18.428;2023-02-14T14:00:48;39.13;;;22.25;;
33690;SDS011;20026;50.058;18.428;2023-02-14T14:03:51;34.20;;;18.63;;
33690;SDS011;20026;50.058;18.428;2023-02-14T14:06:07;36.05;;;17.40;;
33690;SDS011;20026;50.058;18.428;2023-02-14T14:08:40;33.95;;;17.70;;
33690;SDS011;20026;50.058;18.428;2023-02-14T14:26:38;48.75;;;26.80;;
33690;SDS011;20026;50.058;18.428;2023-02-14T14:29:08;39.83;;;22.65;;
33690;SDS011;20026;50.058;18.428;2023-02-14T14:31:35;54.75;;;37.15;;
33690;SDS011;20026;50.058;18.428;2023-02-14T14:34:01;36.90;;;21.83;;
33690;SDS011;20026;50.058;18.428;2023-02-14T14:36:27;39.35;;;23.48;;
33690;SDS011;20026;50.058;18.428;2023-02-14T14:38:53;43.38;;;24.02;;
33690;SDS011;20026;50.058;18.428;2023-02-14T14:41:25;40.08;;;22.25;;
33690;SDS011;20026;50.058;18.428;2023-02-14T14:43:51;43.83;;;21.88;;
33690;SDS011;20026;50.058;18.428;2023-02-14T14:46:18;61.55;;;27.85;;
33690;SDS011;20026;50.058;18.428;2023-02-14T14:48:47;67.07;;;28.30;;
33690;SDS011;20026;50.058;18.428;2023-02-14T14:51:31;76.07;;;33.10;;
33690;SDS011;20026;50.058;18.428;2023-02-14T14:56:28;55.45;;;25.73;;
33690;SDS011;20026;50.058;18.428;2023-02-14T14:58:56;74.10;;;34.33;;
33690;SDS011;20026;50.058;18.428;2023-02-14T15:01:34;67.43;;;32.28;;
33690;SDS011;20026;50.058;18.428;2023-02-14T15:06:36;49.22;;;26.35;;
33690;SDS011;20026;50.058;18.428;2023-02-14T15:09:13;46.22;;;23.95;;
33690;SDS011;20026;50.058;18.428;2023-02-14T15:11:39;38.20;;;22.70;;
33690;SDS011;20026;50.058;18.428;2023-02-14T15:14:25;47.85;;;23.05;;
33690;SDS011;20026;50.058;18.428;2023-02-14T15:16:59;42.88;;;22.50;;
33690;SDS011;20026;50.058;18.428;2023-02-14T15:19:33;41.42;;;21.98;;
33690;SDS011;20026;50.058;18.428;2023-02-14T15:22:04;39.53;;;20.35;;
33690;SDS011;20026;50.058;18.428;2023-02-14T15:24:31;36.67;;;19.48;;
33690;SDS011;20026;50.058;18.428;2023-02-14T15:26:59;37.13;;;20.90;;
33690;SDS011;20026;50.058;18.428;2023-02-14T15:29:30;41.85;;;24.58;;
33690;SDS011;20026;50.058;18.428;2023-02-14T15:31:56;38.85;;;23.98;;
33690;SDS011;20026;50.058;18.428;2023-02-14T15:34:27;47.15;;;27.73;;
33690;SDS011;20026;50.058;18.428;2023-02-14T15:36:54;47.33;;;24.77;;
33690;SDS011;20026;50.058;18.428;2023-02-14T15:39:28;48.13;;;25.08;;
33690;SDS011;20026;50.058;18.428;2023-02-14T15:41:57;58.42;;;27.50;;
33690;SDS011;20026;50.058;18.428;2023-02-14T15:44:24;54.78;;;26.95;;
33690;SDS011;20026;50.058;18.428;2023-02-14T15:47:11;56.08;;;28.02;;
33690;SDS011;20026;50.058;18.428;2023-02-14T15:49:38;46.28;;;24.73;;
33690;SDS011;20026;50.058;18.428;2023-02-14T15:52:09;41.13;;;22.88;;
33690;SDS011;20026;50.058;18.428;2023-02-14T15:54:37;35.47;;;21.65;;
33690;SDS011;20026;50.058;18.428;2023-02-14T15:57:06;42.65;;;23.60;;
33690;SDS011;20026;50.058;18.428;2023-02-14T15:59:33;46.70;;;26.48;;
33690;SDS011;20026;50.058;18.428;2023-02-14T16:02:01;47.90;;;27.55;;
33690;SDS011;20026;50.058;18.428;2023-02-14T16:04:29;52.03;;;29.83;;
33690;SDS011;20026;50.058;18.428;2023-02-14T16:07:03;63.08;;;35.13;;
33690;SDS011;20026;50.058;18.428;2023-02-14T16:09:30;67.97;;;37.33;;
33690;SDS011;20026;50.058;18.428;2023-02-14T16:12:10;69.70;;;36.97;;
33690;SDS011;20026;50.058;18.428;2023-02-14T16:14:38;81.97;;;42.90;;
33690;SDS011;20026;50.058;18.428;2023-02-14T16:17:10;96.50;;;44.67;;
33690;SDS011;20026;50.058;18.428;2023-02-14T16:22:02;79.68;;;39.72;;
33690;SDS011;20026;50.058;18.428;2023-02-14T16:24:28;69.55;;;40.50;;
33690;SDS011;20026;50.058;18.428;2023-02-14T16:26:54;67.80;;;37.22;;
33690;SDS011;20026;50.058;18.428;2023-02-14T16:29:22;65.72;;;35.50;;
33690;SDS011;20026;50.058;18.428;2023-02-14T16:31:49;72.53;;;36.05;;
33690;SDS011;20026;50.058;18.428;2023-02-14T16:34:15;57.70;;;33.47;;
33690;SDS011;20026;50.058;18.428;2023-02-14T16:36:41;65.85;;;35.88;;
33690;SDS011;20026;50.058;18.428;2023-02-14T16:39:14;59.05;;;34.20;;
33690;SDS011;20026;50.058;18.428;2023-02-14T16:41:41;65.32;;;34.03;;
33690;SDS011;20026;50.058;18.428;2023-02-14T16:44:11;71.30;;;35.85;;
33690;SDS011;20026;50.058;18.428;2023-02-14T16:46:38;67.20;;;35.42;;
33690;SDS011;20026;50.058;18.428;2023-02-14T16:49:04;86.43;;;40.88;;